Time;durP1;ratioP1;P1;durP2;ratioP2;P2;SDS_P1;SDS_P2;PMS_P1;PMS_P2;Temp;Humidity;BMP_temperature;BMP_pressure;BME280_temperature;BME280_humidity;BME280_pressure;Samples;Min_cycle;Max_cycle;Signal;HPM_P1;HPM_P2
2022/04/24 00:01:53;;;;;;;4.40;1.88;;;12.90;54.80;;;;;;5046279;28;20132;-66
2022/04/24 00:04:20;;;;;;;3.55;1.90;;;12.90;54.80;;;;;;5049139;28;20064;-67
2022/04/24 00:06:47;;;;;;;2.53;1.38;;;12.90;54.80;;;;;;5046824;28;20041;-66
2022/04/24 00:09:16;;;;;;;5.10;1.77;;;12.90;54.60;;;;;;5052101;28;20068;-65
2022/04/24 00:11:45;;;;;;;5.47;2.20;;;12.90;54.60;;;;;;5048043;28;20143;-65
2022/04/24 00:14:12;;;;;;;3.85;1.80;;;12.90;54.60;;;;;;5049369;28;20099;-66
2022/04/24 00:16:40;;;;;;;4.57;2.20;;;12.90;54.70;;;;;;5050672;28;20088;-66
2022/04/24 00:19:11;;;;;;;4.57;1.70;;;12.90;54.60;;;;;;5050646;28;20049;-65
2022/04/24 00:21:39;;;;;;;4.50;1.88;;;12.90;54.60;;;;;;5048041;28;20040;-66
2022/04/24 00:24:08;;;;;;;5.10;1.65;;;12.90;54.70;;;;;;5047791;28;20116;-66
2022/04/24 00:26:35;;;;;;;3.45;1.73;;;12.80;54.90;;;;;;5051863;28;20379;-66
2022/04/24 00:29:03;;;;;;;3.60;1.45;;;12.90;54.90;;;;;;5047250;28;20088;-66
2022/04/24 00:31:30;;;;;;;5.18;2.00;;;12.90;54.80;;;;;;5048708;28;20038;-66
2022/04/24 00:33:57;;;;;;;5.75;1.95;;;12.90;54.90;;;;;;5042461;28;20053;-65
2022/04/24 00:36:24;;;;;;;4.13;1.80;;;12.80;55.10;;;;;;5040384;28;20106;-66
2022/04/24 00:38:51;;;;;;;2.83;1.50;;;12.80;55.20;;;;;;5042062;28;20119;-65
2022/04/24 00:41:18;;;;;;;3.97;1.77;;;12.80;55.30;;;;;;5045712;28;20045;-65
2022/04/24 00:43:52;;;;;;;4.55;1.90;;;12.80;55.30;;;;;;5044595;28;20037;-67
2022/04/24 00:46:56;;;;;;;4.68;1.77;;;12.80;55.30;;;;;;5040544;28;20059;-66
2022/04/24 00:49:23;;;;;;;3.10;2.00;;;12.80;55.30;;;;;;5040653;28;20052;-66
2022/04/24 00:51:51;;;;;;;3.85;1.85;;;12.80;55.40;;;;;;5037414;28;20053;-64
2022/04/24 00:54:18;;;;;;;4.45;2.10;;;12.80;55.50;;;;;;5037877;28;20055;-66
2022/04/24 00:56:45;;;;;;;4.90;1.85;;;12.70;55.60;;;;;;5042421;28;20032;-66
2022/04/24 00:59:14;;;;;;;5.80;1.92;;;12.70;55.70;;;;;;5042825;28;20559;-67
2022/04/24 01:01:42;;;;;;;3.20;1.73;;;12.70;56.00;;;;;;5004484;28;20051;-66
2022/04/24 01:04:12;;;;;;;3.90;1.60;;;12.70;56.00;;;;;;5034226;28;20168;-65
2022/04/24 01:06:41;;;;;;;3.35;1.65;;;12.70;55.80;;;;;;5039464;28;20509;-66
2022/04/24 01:09:10;;;;;;;3.88;1.75;;;12.70;55.80;;;;;;5043729;28;20128;-66
2022/04/24 01:11:37;;;;;;;3.70;1.77;;;12.70;55.80;;;;;;5047852;28;20049;-66
2022/04/24 01:14:04;;;;;;;3.03;1.48;;;12.70;55.80;;;;;;5040577;28;20044;-66
2022/04/24 01:16:32;;;;;;;4.70;2.08;;;12.70;55.90;;;;;;5042524;28;20045;-67
2022/04/24 01:18:59;;;;;;;3.60;1.70;;;12.70;55.90;;;;;;5029598;28;20486;-66
2022/04/24 01:21:27;;;;;;;4.18;1.88;;;12.70;55.90;;;;;;5041865;28;20167;-66
2022/04/24 01:23:54;;;;;;;4.90;1.70;;;12.70;56.10;;;;;;5041081;28;20557;-66
2022/04/24 01:26:21;;;;;;;2.75;1.40;;;12.70;56.30;;;;;;5040893;28;20040;-66
2022/04/24 01:28:48;;;;;;;3.45;1.50;;;12.70;56.30;;;;;;5045799;28;20145;-67
2022/04/24 01:31:15;;;;;;;3.78;1.85;;;12.60;56.30;;;;;;5044100;28;20390;-65
2022/04/24 01:33:42;;;;;;;3.78;1.88;;;12.60;56.30;;;;;;5044092;28;20069;-66
2022/04/24 01:36:09;;;;;;;5.78;1.58;;;12.60;56.10;;;;;;5047953;28;20045;-66
2022/04/24 01:38:37;;;;;;;5.53;1.90;;;12.70;55.90;;;;;;5042416;28;20116;-66
2022/04/24 01:41:04;;;;;;;4.18;1.95;;;12.70;55.90;;;;;;5048914;28;20135;-65
2022/04/24 01:43:31;;;;;;;4.13;1.55;;;12.60;56.10;;;;;;5045855;28;20059;-66
2022/04/24 01:45:58;;;;;;;3.10;1.60;;;12.60;56.10;;;;;;5045886;28;20049;-66
2022/04/24 01:48:25;;;;;;;4.88;1.65;;;12.60;56.20;;;;;;5047357;28;20044;-66
2022/04/24 01:50:54;;;;;;;4.60;1.80;;;12.60;56.40;;;;;;5025425;28;20052;-67
2022/04/24 01:53:21;;;;;;;5.05;1.58;;;12.60;56.30;;;;;;5045784;28;20092;-65
2022/04/24 01:55:50;;;;;;;3.35;1.48;;;12.60;56.50;;;;;;5041205;28;20053;-65
2022/04/24 01:58:17;;;;;;;4.65;1.77;;;12.60;56.40;;;;;;5047481;28;20088;-66
2022/04/24 02:00:44;;;;;;;5.45;2.03;;;12.50;56.70;;;;;;5043286;28;20075;-68
2022/04/24 02:03:11;;;;;;;3.30;1.73;;;12.50;56.60;;;;;;5048697;28;20068;-66
2022/04/24 02:05:37;;;;;;;3.53;1.70;;;12.50;56.70;;;;;;5046505;28;20045;-65
2022/04/24 02:08:05;;;;;;;5.88;2.05;;;12.40;56.80;;;;;;5037548;28;20068;-66
2022/04/24 02:10:32;;;;;;;3.15;1.80;;;12.40;57.00;;;;;;5039108;28;20051;-67
2022/04/24 02:13:00;;;;;;;4.40;2.03;;;12.40;57.00;;;;;;5042544;28;20053;-64
2022/04/24 02:15:28;;;;;;;4.70;1.80;;;12.40;57.10;;;;;;5047266;28;20043;-65
2022/04/24 02:17:55;;;;;;;6.18;2.10;;;12.30;57.10;;;;;;5042345;28;20051;-65
2022/04/24 02:20:23;;;;;;;3.88;1.70;;;12.30;57.20;;;;;;5024408;28;20044;-67
2022/04/24 02:22:50;;;;;;;3.85;1.95;;;12.30;57.20;;;;;;5042058;28;20037;-66
2022/04/24 02:25:18;;;;;;;4.60;2.10;;;12.20;57.30;;;;;;5044478;28;20056;-65
2022/04/24 02:27:45;;;;;;;4.65;2.03;;;12.20;57.40;;;;;;5037896;28;20064;-67
2022/04/24 02:30:14;;;;;;;4.45;1.85;;;12.20;57.30;;;;;;5040922;28;20055;-68
2022/04/24 02:32:41;;;;;;;3.72;1.80;;;12.20;57.30;;;;;;5046883;28;20049;-67
2022/04/24 02:35:08;;;;;;;4.57;2.33;;;12.10;57.40;;;;;;5048334;28;20067;-67
2022/04/24 02:37:35;;;;;;;4.50;1.98;;;12.10;57.50;;;;;;5045261;28;20095;-66
2022/04/24 02:40:02;;;;;;;3.70;1.98;;;12.10;57.60;;;;;;5042005;28;20037;-67
2022/04/24 02:42:29;;;;;;;3.10;1.80;;;12.10;57.60;;;;;;5047916;28;20414;-66
2022/04/24 02:44:56;;;;;;;6.93;2.28;;;12.10;57.70;;;;;;5052102;28;20041;-66
2022/04/24 02:47:24;;;;;;;3.13;1.60;;;12.10;57.70;;;;;;5032719;28;20048;-67
2022/04/24 02:49:51;;;;;;;5.05;2.40;;;12.00;57.80;;;;;;5047438;28;20033;-66
2022/04/24 02:52:18;;;;;;;3.97;1.95;;;12.00;57.90;;;;;;5052169;28;20057;-67
2022/04/24 02:54:45;;;;;;;3.40;1.88;;;12.00;58.00;;;;;;5047634;28;20117;-66
2022/04/24 02:57:12;;;;;;;4.78;2.22;;;11.90;58.00;;;;;;5045155;28;20599;-65
2022/04/24 02:59:42;;;;;;;4.75;2.53;;;11.90;58.10;;;;;;5045853;28;20048;-65
2022/04/24 03:02:09;;;;;;;4.53;2.28;;;11.90;58.10;;;;;;5042318;28;20039;-67
2022/04/24 03:04:37;;;;;;;6.05;2.33;;;11.90;58.30;;;;;;5046466;28;20040;-67
2022/04/24 03:07:05;;;;;;;5.78;2.30;;;11.80;58.40;;;;;;5043666;28;20051;-66
2022/04/24 03:09:32;;;;;;;4.60;1.90;;;11.80;58.40;;;;;;5044892;28;20041;-66
2022/04/24 03:11:59;;;;;;;4.75;2.42;;;11.80;58.60;;;;;;5045890;28;20072;-67
2022/04/24 03:14:27;;;;;;;4.47;2.20;;;11.80;58.60;;;;;;5048092;28;20047;-66
2022/04/24 03:16:53;;;;;;;4.30;2.38;;;11.80;58.50;;;;;;5045595;28;20127;-65
2022/04/24 03:19:20;;;;;;;5.88;2.58;;;11.80;58.60;;;;;;5049739;28;20112;-66
2022/04/24 03:21:49;;;;;;;5.95;2.75;;;11.80;58.60;;;;;;5052508;28;20049;-67
2022/04/24 03:24:16;;;;;;;5.18;2.67;;;11.70;58.60;;;;;;5048931;28;20491;-65
2022/04/24 03:26:43;;;;;;;4.88;2.15;;;11.80;58.70;;;;;;5050619;28;20064;-65
2022/04/24 03:29:10;;;;;;;4.95;2.30;;;11.80;58.80;;;;;;5049724;28;20059;-67
2022/04/24 03:31:37;;;;;;;4.28;2.28;;;11.70;58.90;;;;;;5048297;28;20037;-66
2022/04/24 03:34:05;;;;;;;4.43;2.38;;;11.70;58.90;;;;;;5046731;28;20049;-66
2022/04/24 03:36:32;;;;;;;5.70;2.25;;;11.80;58.90;;;;;;5046020;28;20041;-66
2022/04/24 03:39:01;;;;;;;5.65;2.55;;;11.80;58.80;;;;;;5053051;28;20064;-66
2022/04/24 03:41:29;;;;;;;5.47;2.70;;;11.70;58.90;;;;;;5052594;28;20075;-66
2022/04/24 03:43:56;;;;;;;5.82;2.33;;;11.70;59.00;;;;;;5041918;28;22273;-67
2022/04/24 03:46:22;;;;;;;8.70;2.83;;;11.70;59.10;;;;;;5043505;28;20036;-65
2022/04/24 03:48:49;;;;;;;5.32;2.38;;;11.70;59.20;;;;;;5047916;28;20044;-66
2022/04/24 03:51:16;;;;;;;4.60;2.40;;;11.70;59.30;;;;;;5047467;28;20125;-66
2022/04/24 03:53:43;;;;;;;4.72;2.30;;;11.60;59.40;;;;;;5046062;28;20038;-64
2022/04/24 03:56:11;;;;;;;5.72;2.58;;;11.60;59.50;;;;;;5049340;28;20129;-64
2022/04/24 03:58:39;;;;;;;4.10;2.28;;;11.60;59.60;;;;;;5047850;28;20391;-65
2022/04/24 04:01:06;;;;;;;4.78;2.67;;;11.60;59.80;;;;;;5039364;28;20040;-64
2022/04/24 04:03:33;;;;;;;6.72;3.00;;;11.60;59.70;;;;;;5047670;28;20068;-66
2022/04/24 04:06:00;;;;;;;4.30;2.40;;;11.60;59.80;;;;;;5043219;28;20128;-66
2022/04/24 04:08:27;;;;;;;4.90;2.17;;;11.60;59.70;;;;;;5043773;28;20103;-65
2022/04/24 04:10:55;;;;;;;5.20;2.35;;;11.60;59.70;;;;;;5040965;28;20052;-66
2022/04/24 04:13:24;;;;;;;4.47;2.35;;;11.70;59.70;;;;;;5025213;28;20763;-66
2022/04/24 04:15:51;;;;;;;5.55;2.60;;;11.60;59.70;;;;;;5043554;28;20534;-66
2022/04/24 04:18:18;;;;;;;6.30;2.63;;;11.60;59.80;;;;;;5039044;28;20045;-66
2022/04/24 04:20:45;;;;;;;6.45;2.40;;;11.60;60.00;;;;;;5046129;28;20127;-66
2022/04/24 04:23:12;;;;;;;5.82;2.80;;;11.60;60.10;;;;;;5050965;28;20045;-65
2022/04/24 04:25:39;;;;;;;4.68;2.80;;;11.50;60.20;;;;;;5045414;28;20041;-65
2022/04/24 04:28:06;;;;;;;5.22;2.65;;;11.50;60.40;;;;;;5048150;28;20041;-67
2022/04/24 04:30:34;;;;;;;6.18;3.05;;;11.60;60.40;;;;;;5049396;28;20041;-66
2022/04/24 04:33:01;;;;;;;6.00;2.90;;;11.50;60.50;;;;;;5045594;28;20041;-66
2022/04/24 04:35:28;;;;;;;6.13;3.10;;;11.50;60.80;;;;;;5037119;28;20482;-65
2022/04/24 04:37:55;;;;;;;5.82;3.15;;;11.60;60.70;;;;;;5040102;28;20037;-66
2022/04/24 04:40:23;;;;;;;5.15;2.67;;;11.60;60.80;;;;;;5038082;28;20768;-66
2022/04/24 04:42:50;;;;;;;5.45;3.10;;;11.60;60.80;;;;;;5040858;28;20127;-67
2022/04/24 04:45:18;;;;;;;5.80;2.90;;;11.60;60.90;;;;;;5040165;28;20072;-66
2022/04/24 04:47:48;;;;;;;5.88;2.70;;;11.60;60.90;;;;;;5040938;28;20048;-66
2022/04/24 04:50:15;;;;;;;5.03;2.80;;;11.60;60.80;;;;;;5039317;28;20103;-66
2022/04/24 04:52:41;;;;;;;4.90;2.38;;;11.70;60.80;;;;;;5041854;28;20123;-67
2022/04/24 04:55:09;;;;;;;5.43;3.13;;;11.60;60.90;;;;;;5043276;28;20068;-67
2022/04/24 04:57:36;;;;;;;6.75;2.65;;;11.70;60.80;;;;;;5044027;28;20053;-67
2022/04/24 05:00:06;;;;;;;5.30;2.90;;;11.70;61.00;;;;;;5043652;28;20143;-66
2022/04/24 05:02:37;;;;;;;7.95;3.42;;;11.70;60.90;;;;;;5042117;28;20040;-66
2022/04/24 05:05:07;;;;;;;5.32;3.20;;;11.70;60.90;;;;;;5042576;28;20434;-66
2022/04/24 05:07:34;;;;;;;6.43;3.65;;;11.70;60.80;;;;;;5038905;28;20069;-65
2022/04/24 05:10:01;;;;;;;5.80;2.65;;;11.70;61.00;;;;;;5042816;28;21081;-66
2022/04/24 05:12:30;;;;;;;5.32;3.10;;;11.70;60.80;;;;;;5043666;28;20132;-66
2022/04/24 05:15:01;;;;;;;8.23;3.15;;;11.80;60.50;;;;;;5044319;28;20049;-66
2022/04/24 05:17:28;;;;;;;8.32;3.92;;;11.80;60.40;;;;;;5042930;28;20391;-67
2022/04/24 05:19:55;;;;;;;6.82;3.67;;;11.70;60.50;;;;;;5041024;28;20037;-66
2022/04/24 05:22:24;;;;;;;6.30;3.58;;;11.80;60.60;;;;;;5039050;28;20036;-65
2022/04/24 05:24:51;;;;;;;8.40;3.33;;;11.80;60.50;;;;;;5039706;28;20059;-66
2022/04/24 05:27:19;;;;;;;6.57;3.38;;;11.80;60.60;;;;;;5042874;28;20056;-66
2022/04/24 05:29:46;;;;;;;7.57;4.03;;;11.80;60.40;;;;;;5042087;28;20043;-66
2022/04/24 05:32:13;;;;;;;7.78;3.75;;;11.80;60.30;;;;;;5038915;28;20102;-66
2022/04/24 05:34:40;;;;;;;6.20;3.22;;;11.80;60.20;;;;;;5040195;28;20139;-66
2022/04/24 05:37:07;;;;;;;6.78;3.35;;;11.80;60.20;;;;;;5040912;28;20051;-67
2022/04/24 05:39:36;;;;;;;6.60;4.13;;;11.80;60.20;;;;;;5044456;28;20045;-65
2022/04/24 05:42:03;;;;;;;6.80;3.72;;;11.80;60.10;;;;;;5037238;28;20501;-66
2022/04/24 05:44:30;;;;;;;8.63;3.50;;;11.80;60.20;;;;;;5011798;28;20065;-66
2022/04/24 05:46:58;;;;;;;8.80;4.22;;;11.90;60.30;;;;;;5035610;28;20068;-65
2022/04/24 05:49:24;;;;;;;7.90;3.83;;;11.90;60.30;;;;;;5030682;28;20049;-66
2022/04/24 05:51:51;;;;;;;6.57;3.70;;;11.90;60.30;;;;;;5031042;28;20095;-66
2022/04/24 05:54:18;;;;;;;6.70;3.80;;;11.90;60.20;;;;;;5027631;28;20053;-68
2022/04/24 05:56:47;;;;;;;8.40;3.80;;;11.90;60.20;;;;;;5029488;28;20049;-69
2022/04/24 05:59:14;;;;;;;7.38;3.85;;;11.90;60.20;;;;;;5030459;28;20049;-67
2022/04/24 06:01:41;;;;;;;7.53;3.72;;;11.90;60.20;;;;;;5025853;28;20087;-66
2022/04/24 06:04:08;;;;;;;8.15;4.45;;;12.00;60.10;;;;;;5022479;28;20040;-68
2022/04/24 06:06:35;;;;;;;6.55;3.58;;;12.00;60.20;;;;;;5000088;28;20052;-66
2022/04/24 06:09:02;;;;;;;7.05;3.65;;;12.00;60.30;;;;;;5029496;28;20088;-66
2022/04/24 06:11:29;;;;;;;8.20;4.40;;;12.00;60.40;;;;;;5026054;28;20041;-66
2022/04/24 06:13:58;;;;;;;8.00;3.58;;;12.10;60.50;;;;;;5028718;28;20831;-65
2022/04/24 06:16:25;;;;;;;7.15;3.78;;;12.10;60.40;;;;;;5029800;28;20556;-67
2022/04/24 06:18:52;;;;;;;6.45;3.75;;;12.10;60.40;;;;;;5026994;28;20129;-65
2022/04/24 06:21:20;;;;;;;7.03;3.63;;;12.10;60.40;;;;;;5030147;28;20065;-66
2022/04/24 06:23:47;;;;;;;7.38;4.18;;;12.10;60.60;;;;;;5032526;28;20093;-66
2022/04/24 06:26:15;;;;;;;7.55;4.28;;;12.10;60.60;;;;;;5029838;28;20049;-66
2022/04/24 06:28:42;;;;;;;7.88;3.97;;;12.20;60.70;;;;;;5027959;28;20052;-66
2022/04/24 06:31:11;;;;;;;7.88;4.10;;;12.10;60.90;;;;;;5029237;28;20044;-66
2022/04/24 06:33:38;;;;;;;9.23;4.40;;;12.20;60.80;;;;;;5029284;28;20467;-65
2022/04/24 06:36:05;;;;;;;8.73;4.10;;;12.20;60.80;;;;;;5033641;28;20073;-66
2022/04/24 06:38:32;;;;;;;7.60;4.25;;;12.20;60.90;;;;;;5026607;28;20065;-66
2022/04/24 06:40:59;;;;;;;6.72;4.10;;;12.20;60.90;;;;;;5028756;28;20053;-66
2022/04/24 06:43:26;;;;;;;7.40;4.03;;;12.30;61.00;;;;;;5042392;28;20057;-66
2022/04/24 06:45:53;;;;;;;7.05;4.10;;;12.30;61.10;;;;;;5043150;28;20495;-65
2022/04/24 06:48:24;;;;;;;7.22;4.03;;;12.40;61.30;;;;;;5042724;28;20049;-65
2022/04/24 06:50:51;;;;;;;7.85;4.25;;;12.40;61.10;;;;;;5044431;28;20052;-66
2022/04/24 06:53:20;;;;;;;8.50;4.25;;;12.40;61.00;;;;;;5042013;28;20779;-66
2022/04/24 06:55:48;;;;;;;7.82;4.10;;;12.40;61.20;;;;;;5042045;28;20037;-66
2022/04/24 06:58:18;;;;;;;8.02;4.68;;;12.50;61.30;;;;;;5041807;28;20037;-65
2022/04/24 07:00:47;;;;;;;8.00;3.95;;;12.60;61.30;;;;;;5040694;28;20067;-65
2022/04/24 07:03:16;;;;;;;9.20;3.93;;;12.60;61.30;;;;;;5046288;28;20119;-66
2022/04/24 07:05:44;;;;;;;8.20;4.55;;;12.70;61.10;;;;;;5038176;28;20515;-66
2022/04/24 07:08:12;;;;;;;10.52;4.88;;;12.80;61.00;;;;;;5043081;28;20120;-66
2022/04/24 07:10:38;;;;;;;7.72;4.32;;;12.80;60.70;;;;;;5044082;28;20069;-66
2022/04/24 07:13:06;;;;;;;7.88;4.07;;;12.90;60.70;;;;;;5041983;28;20033;-66
2022/04/24 07:15:36;;;;;;;7.43;4.30;;;13.00;60.70;;;;;;5023646;28;20041;-67
2022/04/24 07:18:05;;;;;;;8.00;4.00;;;13.10;60.60;;;;;;5042244;28;20037;-66
2022/04/24 07:20:32;;;;;;;8.15;4.18;;;13.10;60.40;;;;;;5043094;28;20053;-66
2022/04/24 07:23:01;;;;;;;6.88;4.47;;;13.20;60.50;;;;;;5042490;28;20101;-65
2022/04/24 07:25:34;;;;;;;13.30;4.60;;;13.10;60.40;;;;;;5042777;28;20051;-66
2022/04/24 07:28:01;;;;;;;9.48;4.85;;;13.20;60.10;;;;;;5044979;28;20049;-67
2022/04/24 07:30:28;;;;;;;7.30;4.18;;;13.20;60.10;;;;;;5029486;28;20145;-67
2022/04/24 07:32:57;;;;;;;9.02;4.70;;;13.20;60.10;;;;;;5046027;28;20043;-65
2022/04/24 07:35:26;;;;;;;8.77;4.47;;;13.20;60.20;;;;;;5043565;28;20040;-66
2022/04/24 07:37:54;;;;;;;8.68;4.70;;;13.30;60.10;;;;;;5044142;28;20376;-67
2022/04/24 07:40:24;;;;;;;8.57;4.95;;;13.40;60.20;;;;;;5040376;28;20568;-65
2022/04/24 07:42:52;;;;;;;7.15;4.03;;;13.50;60.00;;;;;;5033412;28;20058;-66
2022/04/24 07:45:20;;;;;;;10.55;4.85;;;13.60;60.00;;;;;;5030991;28;20045;-66
2022/04/24 07:47:48;;;;;;;7.00;4.45;;;13.60;59.90;;;;;;5030193;28;20045;-67
2022/04/24 07:50:15;;;;;;;9.45;4.63;;;13.70;60.00;;;;;;5028244;28;20124;-65
2022/04/24 07:52:43;;;;;;;7.47;4.80;;;13.80;59.30;;;;;;5026925;28;20041;-66
2022/04/24 07:55:12;;;;;;;8.45;5.03;;;13.80;59.30;;;;;;5028125;28;20547;-66
2022/04/24 07:57:41;;;;;;;8.30;4.75;;;13.90;58.90;;;;;;5033270;28;20181;-66
2022/04/24 08:00:10;;;;;;;10.05;5.75;;;14.00;58.40;;;;;;5031217;28;20060;-67
2022/04/24 08:02:50;;;;;;;7.68;4.72;;;14.00;58.30;;;;;;5029374;28;20282;-67
2022/04/24 08:05:22;;;;;;;7.80;4.53;;;14.10;58.10;;;;;;5031529;28;20041;-66
2022/04/24 08:07:49;;;;;;;8.30;4.72;;;14.10;58.10;;;;;;5030446;28;20403;-66
2022/04/24 08:10:17;;;;;;;10.45;5.20;;;14.10;57.90;;;;;;5031000;28;20033;-66
2022/04/24 08:12:45;;;;;;;8.77;5.35;;;14.10;57.70;;;;;;5032053;28;20050;-67
2022/04/24 08:15:12;;;;;;;7.90;5.00;;;14.20;57.70;;;;;;5030520;28;20046;-66
2022/04/24 08:17:40;;;;;;;6.70;3.92;;;14.20;57.70;;;;;;5036571;28;20959;-66
2022/04/24 08:20:09;;;;;;;6.88;4.28;;;14.30;57.60;;;;;;5029076;28;20067;-66
2022/04/24 08:22:41;;;;;;;6.97;4.32;;;14.40;57.80;;;;;;5032459;28;20392;-67
2022/04/24 08:25:09;;;;;;;8.68;4.55;;;14.40;57.60;;;;;;5012223;28;20060;-67
2022/04/24 08:27:36;;;;;;;7.40;4.78;;;14.40;57.40;;;;;;5031414;28;20065;-65
2022/04/24 08:30:07;;;;;;;10.15;5.10;;;14.50;57.60;;;;;;5030371;28;20045;-65
2022/04/24 08:32:34;;;;;;;8.15;4.75;;;14.50;57.30;;;;;;5032764;28;20513;-66
2022/04/24 08:35:02;;;;;;;8.45;4.50;;;14.50;57.50;;;;;;5032584;28;20053;-65
2022/04/24 08:37:29;;;;;;;9.25;4.95;;;14.60;57.40;;;;;;5025699;28;20044;-66
2022/04/24 08:39:56;;;;;;;9.50;5.18;;;14.60;57.50;;;;;;5034932;28;20061;-66
2022/04/24 08:42:23;;;;;;;8.48;4.72;;;14.70;57.20;;;;;;5047136;28;20593;-66
2022/04/24 08:44:52;;;;;;;9.10;5.05;;;14.80;57.20;;;;;;5044609;28;20107;-66
2022/04/24 08:47:20;;;;;;;8.60;4.85;;;15.00;56.70;;;;;;5045093;28;20040;-66
2022/04/24 08:49:47;;;;;;;8.88;4.88;;;15.00;56.60;;;;;;5043892;28;20052;-66
2022/04/24 08:52:15;;;;;;;8.50;4.82;;;15.10;56.60;;;;;;5044798;28;20604;-66
2022/04/24 08:54:43;;;;;;;8.00;4.53;;;15.00;56.70;;;;;;5039402;28;20471;-66
2022/04/24 08:57:10;;;;;;;9.80;4.60;;;15.10;56.80;;;;;;5041548;28;20041;-65
2022/04/24 08:59:38;;;;;;;8.60;5.28;;;15.20;56.90;;;;;;5041781;28;20075;-66
2022/04/24 09:02:06;;;;;;;8.02;5.00;;;15.20;56.60;;;;;;5039654;28;20040;-66
2022/04/24 09:04:35;;;;;;;8.50;4.57;;;15.20;56.50;;;;;;5043368;28;20095;-65
2022/04/24 09:07:04;;;;;;;7.07;4.23;;;15.20;56.40;;;;;;5043936;28;20402;-65
2022/04/24 09:09:32;;;;;;;7.70;4.90;;;15.20;56.20;;;;;;5044265;28;20494;-66
2022/04/24 09:12:09;;;;;;;8.20;4.65;;;15.20;56.40;;;;;;5043990;28;20406;-66
2022/04/24 09:14:42;;;;;;;9.15;5.53;;;15.10;56.40;;;;;;5044688;28;20068;-66
2022/04/24 09:17:17;;;;;;;7.80;4.60;;;15.10;56.50;;;;;;5039035;28;20514;-65
2022/04/24 09:19:46;;;;;;;9.00;5.38;;;15.10;56.30;;;;;;5041722;28;20044;-65
2022/04/24 09:22:13;;;;;;;10.65;5.35;;;15.00;56.10;;;;;;5040435;28;20562;-66
2022/04/24 09:24:42;;;;;;;9.18;5.20;;;15.00;56.00;;;;;;5042536;28;20045;-65
2022/04/24 09:27:11;;;;;;;8.15;5.03;;;14.90;56.50;;;;;;5043163;28;20544;-67
2022/04/24 09:29:39;;;;;;;8.40;4.88;;;14.90;56.60;;;;;;5042197;28;20091;-68
2022/04/24 09:32:12;;;;;;;8.43;4.65;;;14.80;56.80;;;;;;5045294;28;20041;-67
2022/04/24 09:34:39;;;;;;;8.55;4.50;;;14.80;57.00;;;;;;5042033;28;20076;-66
2022/04/24 09:37:09;;;;;;;10.73;5.05;;;14.80;56.90;;;;;;5043957;28;20037;-67
2022/04/24 09:39:38;;;;;;;10.93;5.75;;;14.70;56.80;;;;;;5041877;28;20033;-66
2022/04/24 09:42:07;;;;;;;8.60;4.82;;;14.70;56.60;;;;;;5043300;28;20060;-66
2022/04/24 09:44:39;;;;;;;9.77;4.85;;;14.60;56.70;;;;;;5023940;28;20049;-66
2022/04/24 09:47:07;;;;;;;7.90;4.90;;;14.60;56.80;;;;;;5040829;28;20033;-67
2022/04/24 09:49:37;;;;;;;10.07;5.18;;;14.60;56.90;;;;;;5039692;28;20041;-67
2022/04/24 09:52:11;;;;;;;9.90;4.68;;;14.60;56.90;;;;;;5045467;28;20052;-66
2022/04/24 09:54:42;;;;;;;9.02;5.35;;;14.60;56.90;;;;;;5043009;28;20056;-65
2022/04/24 09:57:10;;;;;;;9.02;5.50;;;14.60;56.60;;;;;;5042412;28;20439;-65
2022/04/24 09:59:39;;;;;;;9.45;4.68;;;14.60;56.50;;;;;;5043812;28;20116;-67
2022/04/24 10:02:07;;;;;;;9.48;5.10;;;14.60;56.90;;;;;;5043207;28;20041;-66
2022/04/24 10:04:36;;;;;;;10.27;5.53;;;14.60;56.70;;;;;;5044258;28;20069;-67
2022/04/24 10:07:07;;;;;;;8.93;4.55;;;14.60;56.60;;;;;;5044377;28;20041;-68
2022/04/24 10:09:37;;;;;;;7.78;4.28;;;14.60;56.70;;;;;;5043407;28;20064;-65
2022/04/24 10:12:05;;;;;;;;;;;14.60;56.60;;;;;;5044575;28;20092;-66
2022/04/24 10:14:35;;;;;;;9.38;5.30;;;14.60;56.40;;;;;;5042462;28;19935;-66
2022/04/24 10:17:20;;;;;;;9.38;5.47;;;14.60;56.40;;;;;;5042338;28;20053;-67
2022/04/24 10:20:01;;;;;;;7.72;4.80;;;14.60;56.10;;;;;;5041553;28;20116;-66
2022/04/24 10:22:38;;;;;;;8.50;4.95;;;14.60;56.30;;;;;;5041139;28;20072;-67
2022/04/24 10:25:07;;;;;;;7.60;4.63;;;14.60;56.10;;;;;;5042274;28;20391;-67
2022/04/24 10:27:41;;;;;;;9.32;4.60;;;14.60;56.10;;;;;;5042349;28;20045;-67
2022/04/24 10:30:13;;;;;;;10.25;5.40;;;14.60;55.90;;;;;;5044460;28;20502;-66
2022/04/24 10:32:41;;;;;;;8.65;5.00;;;14.70;55.70;;;;;;5042869;28;20060;-67
2022/04/24 10:35:17;;;;;;;7.80;4.90;;;14.70;55.50;;;;;;5042375;28;20049;-67
2022/04/24 10:37:45;;;;;;;8.73;4.68;;;14.70;55.60;;;;;;5044376;28;20144;-67
2022/04/24 10:40:18;;;;;;;9.60;5.30;;;14.70;55.50;;;;;;5042700;28;20043;-66
2022/04/24 10:42:46;;;;;;;9.05;4.45;;;14.70;55.50;;;;;;5043069;28;20057;-66
2022/04/24 10:45:15;;;;;;;10.50;4.93;;;14.70;55.80;;;;;;5040132;28;20581;-66
2022/04/24 10:47:45;;;;;;;8.15;5.05;;;14.70;55.70;;;;;;5043827;28;20116;-66
2022/04/24 10:50:12;;;;;;;8.80;4.82;;;14.70;55.60;;;;;;5040707;28;20041;-67
2022/04/24 10:52:41;;;;;;;7.32;4.40;;;14.70;55.60;;;;;;5041075;28;20061;-67
2022/04/24 10:55:09;;;;;;;12.55;5.13;;;14.70;55.80;;;;;;5040355;28;20077;-66
2022/04/24 10:57:43;;;;;;;10.77;5.15;;;14.70;55.90;;;;;;5039740;28;20065;-65
2022/04/24 11:00:22;;;;;;;9.07;4.70;;;14.70;55.90;;;;;;5040293;28;20041;-67
2022/04/24 11:02:50;;;;;;;9.10;5.03;;;14.80;56.00;;;;;;5039855;28;20055;-66
2022/04/24 11:05:21;;;;;;;10.70;5.05;;;14.80;56.10;;;;;;5044542;28;20033;-66
2022/04/24 11:07:48;;;;;;;8.45;4.53;;;14.80;56.10;;;;;;5046037;28;20041;-66
2022/04/24 11:10:20;;;;;;;8.18;4.97;;;14.70;56.20;;;;;;5044682;28;20418;-65
2022/04/24 11:12:51;;;;;;;9.88;5.00;;;14.70;56.20;;;;;;5043306;28;20124;-65
2022/04/24 11:15:19;;;;;;;8.77;5.65;;;14.70;56.30;;;;;;5042571;28;20041;-66
2022/04/24 11:17:46;;;;;;;10.80;4.97;;;14.70;56.60;;;;;;5048187;28;20059;-66
2022/04/24 11:20:15;;;;;;;11.15;5.20;;;14.70;56.70;;;;;;5045879;28;20055;-67
2022/04/24 11:22:47;;;;;;;10.27;5.25;;;14.80;56.90;;;;;;5045370;28;20048;-65
2022/04/24 11:25:15;;;;;;;9.40;5.25;;;14.80;56.90;;;;;;5042410;28;20056;-65
2022/04/24 11:27:43;;;;;;;10.80;5.90;;;14.80;56.80;;;;;;5045243;28;20471;-66
2022/04/24 11:30:19;;;;;;;8.52;5.25;;;14.90;56.70;;;;;;5045378;28;20483;-66
2022/04/24 11:33:04;;;;;;;8.68;5.10;;;14.90;56.70;;;;;;5045236;28;20033;-66
2022/04/24 11:35:33;;;;;;;9.57;5.13;;;15.00;56.70;;;;;;5046338;28;20048;-65
2022/04/24 11:38:00;;;;;;;10.32;6.00;;;15.10;56.50;;;;;;5044986;28;20087;-67
2022/04/24 11:40:28;;;;;;;9.02;5.28;;;15.10;56.90;;;;;;5041511;28;20509;-66
2022/04/24 11:43:03;;;;;;;9.02;4.63;;;15.10;57.10;;;;;;5044849;28;20052;-66
2022/04/24 11:51:13;;;;;;;8.20;5.00;;;15.20;57.50;;;;;;5045634;28;20068;-66
2022/04/24 11:53:40;;;;;;;9.20;4.70;;;15.20;57.80;;;;;;5045970;28;20037;-66
2022/04/24 11:56:08;;;;;;;8.18;4.53;;;15.10;58.00;;;;;;5048919;28;20068;-66
2022/04/24 11:58:36;;;;;;;11.02;6.28;;;15.20;58.00;;;;;;5045061;28;20552;-65
2022/04/24 12:01:07;;;;;;;8.98;5.57;;;15.20;58.20;;;;;;5044011;28;20518;-66
2022/04/24 12:03:36;;;;;;;9.68;4.90;;;15.30;58.30;;;;;;5047488;28;20041;-64
2022/04/24 12:06:05;;;;;;;9.10;5.25;;;15.40;58.20;;;;;;5048225;28;20053;-66
2022/04/24 12:08:44;;;;;;;10.88;5.97;;;15.40;58.00;;;;;;5052050;28;20051;-65
2022/04/24 12:11:11;;;;;;;8.65;5.18;;;15.40;57.80;;;;;;5051905;28;20094;-68
2022/04/24 12:13:38;;;;;;;10.55;5.47;;;15.40;58.00;;;;;;5047977;28;20045;-65
2022/04/24 12:16:07;;;;;;;11.57;5.63;;;15.40;58.10;;;;;;5051177;28;20049;-65
2022/04/24 12:18:34;;;;;;;11.13;6.40;;;15.40;57.90;;;;;;5052251;28;20057;-65
2022/04/24 12:21:02;;;;;;;9.35;5.63;;;15.50;57.90;;;;;;5050909;28;20041;-64
2022/04/24 12:23:31;;;;;;;10.82;6.03;;;15.60;58.10;;;;;;5051674;28;20099;-65
2022/04/24 12:26:00;;;;;;;8.65;5.53;;;15.60;58.00;;;;;;5052629;28;20048;-65
2022/04/24 12:28:32;;;;;;;10.32;6.07;;;15.60;58.10;;;;;;5048700;28;20063;-65
2022/04/24 12:31:01;;;;;;;9.57;5.90;;;15.60;58.20;;;;;;5048511;28;20045;-65
2022/04/24 12:33:29;;;;;;;9.55;5.88;;;15.60;58.30;;;;;;5050208;28;20045;-65
2022/04/24 12:36:07;;;;;;;9.35;5.85;;;15.70;58.40;;;;;;5050669;28;20095;-67
2022/04/24 12:38:34;;;;;;;12.85;6.32;;;15.70;58.30;;;;;;5050700;28;20041;-67
2022/04/24 12:41:01;;;;;;;11.27;6.65;;;15.70;58.30;;;;;;5049985;28;20047;-67
2022/04/24 12:43:30;;;;;;;10.30;6.10;;;15.60;58.30;;;;;;5051504;28;20458;-68
2022/04/24 12:45:58;;;;;;;10.02;6.63;;;15.60;58.50;;;;;;5050691;28;20064;-68
2022/04/24 12:48:26;;;;;;;10.60;6.30;;;15.60;58.50;;;;;;5051502;28;20457;-68
2022/04/24 12:50:55;;;;;;;10.57;6.20;;;15.50;58.80;;;;;;5049872;28;20049;-69
2022/04/24 12:53:23;;;;;;;14.65;7.85;;;15.50;58.80;;;;;;5050066;28;20057;-67
2022/04/24 12:55:51;;;;;;;9.65;6.07;;;15.40;58.90;;;;;;5049872;28;20033;-68
2022/04/24 12:58:20;;;;;;;10.85;7.03;;;15.40;59.20;;;;;;5048598;28;20048;-68